Time;durP1;ratioP1;P1;durP2;ratioP2;P2;SDS_P1;SDS_P2;PMS_P1;PMS_P2;Temp;Humidity;BMP_temperature;BMP_pressure;BME280_temperature;BME280_humidity;BME280_pressure;Samples;Min_cycle;Max_cycle;Signal;HPM_P1;HPM_P2
2022/03/15 00:02:12;;;;;;;7.78;3.35;;;;;;;;;;5045405;28;20040;-69
2022/03/15 00:04:37;;;;;;;4.80;3.50;;;;;;;;;;5044557;28;20029;-69
2022/03/15 00:07:03;;;;;;;6.93;3.08;;;;;;;;;;5046233;28;20048;-69
2022/03/15 00:09:28;;;;;;;3.55;3.20;;;;;;;;;;5043437;28;20031;-69
2022/03/15 00:11:54;;;;;;;4.15;3.33;;;;;;;;;;5046708;28;20111;-69
2022/03/15 00:14:20;;;;;;;4.22;3.38;;;;;;;;;;5046325;28;20890;-69
2022/03/15 00:16:45;;;;;;;5.97;3.60;;;;;;;;;;5046825;28;20024;-69
2022/03/15 00:19:11;;;;;;;4.15;3.13;;;;;;;;;;5046532;28;20029;-68
2022/03/15 00:21:37;;;;;;;5.15;3.60;;;;;;;;;;5045733;28;20029;-68
2022/03/15 00:24:04;;;;;;;4.72;3.80;;;;;;;;;;5042178;28;20055;-69
2022/03/15 00:26:29;;;;;;;8.98;3.25;;;;;;;;;;5046299;28;20037;-69
2022/03/15 00:28:54;;;;;;;5.03;3.60;;;;;;;;;;5045966;28;20025;-69
2022/03/15 00:31:19;;;;;;;7.05;3.40;;;;;;;;;;5044723;28;20041;-69
2022/03/15 00:33:45;;;;;;;4.13;3.20;;;;;;;;;;5046133;28;20094;-69
2022/03/15 00:36:10;;;;;;;5.03;3.50;;;;;;;;;;5044350;28;20377;-69
2022/03/15 00:38:35;;;;;;;7.75;3.55;;;;;;;;;;5045943;28;20111;-69
2022/03/15 00:41:01;;;;;;;5.00;3.75;;;;;;;;;;5043980;28;20029;-69
2022/03/15 00:43:26;;;;;;;4.15;3.30;;;;;;;;;;5045945;28;20032;-69
2022/03/15 00:45:51;;;;;;;3.42;3.13;;;;;;;;;;5046196;28;20045;-69
2022/03/15 00:48:19;;;;;;;5.32;3.05;;;;;;;;;;5047266;28;20431;-69
2022/03/15 00:50:44;;;;;;;7.78;3.08;;;;;;;;;;5049357;28;20017;-69
2022/03/15 00:53:10;;;;;;;3.83;3.42;;;;;;;;;;5049564;28;20024;-69
2022/03/15 00:55:35;;;;;;;4.57;3.20;;;;;;;;;;5048029;28;20489;-69
2022/03/15 00:58:01;;;;;;;5.30;3.08;;;;;;;;;;5049568;28;20111;-69
2022/03/15 01:00:29;;;;;;;3.92;3.10;;;;;;;;;;5048478;28;20045;-69
2022/03/15 01:02:54;;;;;;;7.03;3.05;;;;;;;;;;5049503;28;20112;-69
2022/03/15 01:05:19;;;;;;;3.47;3.00;;;;;;;;;;5048916;28;20100;-69
2022/03/15 01:07:44;;;;;;;4.60;2.78;;;;;;;;;;5048865;28;20508;-68
2022/03/15 01:10:10;;;;;;;3.60;3.13;;;;;;;;;;5049528;28;20487;-69
2022/03/15 01:12:35;;;;;;;3.97;3.10;;;;;;;;;;5031602;28;20075;-69
2022/03/15 01:15:00;;;;;;;5.65;3.42;;;;;;;;;;5049143;28;20034;-69
2022/03/15 01:17:25;;;;;;;6.95;3.30;;;;;;;;;;5049144;28;20036;-69
2022/03/15 01:19:50;;;;;;;5.75;3.40;;;;;;;;;;5049485;28;20457;-69
2022/03/15 01:22:16;;;;;;;3.85;3.22;;;;;;;;;;5047647;28;20029;-69
2022/03/15 01:24:41;;;;;;;4.22;3.28;;;;;;;;;;5048323;28;20067;-69
2022/03/15 01:27:06;;;;;;;6.80;3.10;;;;;;;;;;5048563;28;20057;-69
2022/03/15 01:29:31;;;;;;;4.75;3.08;;;;;;;;;;5048968;28;20405;-69
2022/03/15 01:31:59;;;;;;;5.10;3.40;;;;;;;;;;5047882;28;20030;-69
2022/03/15 01:34:24;;;;;;;5.28;3.35;;;;;;;;;;5048347;28;20044;-69
2022/03/15 01:36:49;;;;;;;4.32;2.92;;;;;;;;;;5048513;28;20029;-69
2022/03/15 01:39:15;;;;;;;5.05;3.25;;;;;;;;;;5047574;28;20079;-69
2022/03/15 01:41:40;;;;;;;5.18;3.25;;;;;;;;;;5048440;28;20033;-69
2022/03/15 01:44:12;;;;;;;7.95;4.03;;;;;;;;;;5048648;28;20017;-69
2022/03/15 01:46:37;;;;;;;4.07;3.00;;;;;;;;;;5048928;28;20027;-69
2022/03/15 01:49:03;;;;;;;3.38;2.80;;;;;;;;;;5047841;28;20456;-69
2022/03/15 01:51:28;;;;;;;6.20;3.80;;;;;;;;;;5046630;28;20724;-69
2022/03/15 01:53:53;;;;;;;7.80;3.83;;;;;;;;;;5047354;28;20036;-69
2022/03/15 01:56:18;;;;;;;4.47;3.20;;;;;;;;;;5047379;28;20787;-69
2022/03/15 01:58:43;;;;;;;4.55;3.40;;;;;;;;;;5047793;28;20033;-69
2022/03/15 02:01:09;;;;;;;5.35;3.53;;;;;;;;;;5046048;28;20036;-69
2022/03/15 02:03:34;;;;;;;5.28;3.63;;;;;;;;;;5048132;28;20331;-69
2022/03/15 02:06:01;;;;;;;6.47;4.13;;;;;;;;;;5042410;28;20055;-69
2022/03/15 02:08:26;;;;;;;5.38;3.70;;;;;;;;;;5046545;28;20033;-69
2022/03/15 02:10:51;;;;;;;6.97;3.78;;;;;;;;;;5046981;28;20455;-69
2022/03/15 02:13:16;;;;;;;7.78;4.75;;;;;;;;;;5047774;28;20067;-69
2022/03/15 02:15:41;;;;;;;6.63;4.43;;;;;;;;;;5047168;28;20020;-69
2022/03/15 02:18:07;;;;;;;7.88;4.43;;;;;;;;;;5048006;28;20029;-69
2022/03/15 02:20:32;;;;;;;11.48;4.93;;;;;;;;;;5047332;28;20021;-69
2022/03/15 02:22:57;;;;;;;8.02;4.90;;;;;;;;;;5047576;28;20032;-69
2022/03/15 02:25:23;;;;;;;6.90;4.90;;;;;;;;;;5047859;28;20025;-69
2022/03/15 02:27:48;;;;;;;6.55;4.57;;;;;;;;;;5047934;28;20028;-69
2022/03/15 02:30:13;;;;;;;7.38;5.40;;;;;;;;;;5047079;28;20115;-69
2022/03/15 02:32:38;;;;;;;8.95;5.53;;;;;;;;;;5047962;28;20025;-69
2022/03/15 02:35:04;;;;;;;10.05;5.10;;;;;;;;;;5047591;28;20052;-69
2022/03/15 02:37:29;;;;;;;12.45;5.13;;;;;;;;;;5047651;28;20108;-69
2022/03/15 02:39:54;;;;;;;8.57;4.75;;;;;;;;;;5047083;28;20013;-69
2022/03/15 02:42:19;;;;;;;7.72;4.95;;;;;;;;;;5047516;28;20056;-69
2022/03/15 02:44:45;;;;;;;7.47;5.13;;;;;;;;;;5043030;28;20036;-69
2022/03/15 02:47:13;;;;;;;7.40;5.50;;;;;;;;;;5047882;28;20374;-69
2022/03/15 02:49:38;;;;;;;6.43;5.20;;;;;;;;;;5045470;28;20599;-69
2022/03/15 02:52:03;;;;;;;8.68;5.45;;;;;;;;;;5046993;28;20020;-69
2022/03/15 02:54:29;;;;;;;8.57;5.15;;;;;;;;;;5045488;28;20075;-69
2022/03/15 02:56:54;;;;;;;8.90;5.63;;;;;;;;;;5047717;28;20025;-68
2022/03/15 02:59:20;;;;;;;9.20;5.60;;;;;;;;;;5047245;28;20017;-69
2022/03/15 03:01:45;;;;;;;9.07;4.95;;;;;;;;;;5046409;28;20036;-69
2022/03/15 03:04:10;;;;;;;7.63;4.80;;;;;;;;;;5046848;28;20033;-69
2022/03/15 03:06:36;;;;;;;7.57;4.78;;;;;;;;;;5047216;28;20024;-68
2022/03/15 03:09:01;;;;;;;8.88;5.10;;;;;;;;;;5045882;28;20025;-68
2022/03/15 03:11:26;;;;;;;8.02;4.40;;;;;;;;;;5046317;28;20448;-69
2022/03/15 03:13:57;;;;;;;12.20;4.97;;;;;;;;;;5047923;28;20032;-69
2022/03/15 03:16:23;;;;;;;7.25;4.95;;;;;;;;;;5047148;28;20485;-69
2022/03/15 03:18:48;;;;;;;16.17;5.10;;;;;;;;;;5046655;28;20036;-69
2022/03/15 03:21:14;;;;;;;5.70;4.60;;;;;;;;;;5046824;28;20056;-69
2022/03/15 03:23:39;;;;;;;9.48;5.30;;;;;;;;;;5045717;28;20035;-69
2022/03/15 03:26:05;;;;;;;7.30;5.20;;;;;;;;;;5046723;28;20081;-69
2022/03/15 03:28:37;;;;;;;8.00;5.43;;;;;;;;;;5046147;28;20470;-69
2022/03/15 03:31:03;;;;;;;7.07;5.00;;;;;;;;;;5040709;28;20389;-69
2022/03/15 03:33:28;;;;;;;8.43;4.95;;;;;;;;;;5046345;28;20044;-69
2022/03/15 03:35:53;;;;;;;6.95;5.05;;;;;;;;;;5046408;28;20044;-69
2022/03/15 03:38:18;;;;;;;7.25;4.85;;;;;;;;;;5041971;28;20074;-69
2022/03/15 03:40:44;;;;;;;8.02;5.18;;;;;;;;;;5045535;28;20024;-69
2022/03/15 03:43:09;;;;;;;8.07;5.20;;;;;;;;;;5047381;28;20656;-69
2022/03/15 03:45:38;;;;;;;6.60;4.78;;;;;;;;;;5046503;28;20104;-69
2022/03/15 03:48:04;;;;;;;10.02;5.05;;;;;;;;;;5029423;28;20029;-69
2022/03/15 03:50:29;;;;;;;7.50;4.78;;;;;;;;;;5046151;28;20025;-69
2022/03/15 03:52:55;;;;;;;6.90;4.47;;;;;;;;;;5045592;28;20021;-69
2022/03/15 03:55:20;;;;;;;8.55;5.40;;;;;;;;;;5046115;28;20025;-69
2022/03/15 03:57:45;;;;;;;7.90;5.10;;;;;;;;;;5044873;28;20116;-69
2022/03/15 04:00:10;;;;;;;7.30;5.03;;;;;;;;;;5044780;28;20646;-68
2022/03/15 04:02:35;;;;;;;6.90;4.90;;;;;;;;;;5046573;28;20112;-68
2022/03/15 04:05:01;;;;;;;7.25;4.75;;;;;;;;;;5045998;28;20651;-68
2022/03/15 04:07:28;;;;;;;7.35;4.78;;;;;;;;;;5045975;28;20021;-68
2022/03/15 04:09:53;;;;;;;16.40;5.53;;;;;;;;;;5046083;28;20503;-68
2022/03/15 04:12:20;;;;;;;6.53;4.90;;;;;;;;;;5046073;28;20104;-69
2022/03/15 04:14:46;;;;;;;7.65;5.30;;;;;;;;;;5045965;28;20061;-68
2022/03/15 04:17:11;;;;;;;7.57;5.65;;;;;;;;;;5046824;28;20028;-68
2022/03/15 04:19:37;;;;;;;7.30;5.18;;;;;;;;;;5046016;28;20016;-68
2022/03/15 04:22:02;;;;;;;10.32;6.15;;;;;;;;;;5041592;28;20035;-68
2022/03/15 04:24:27;;;;;;;9.88;5.72;;;;;;;;;;5049436;28;20028;-68
2022/03/15 04:26:52;;;;;;;7.38;5.45;;;;;;;;;;5049261;28;20033;-68
2022/03/15 04:29:18;;;;;;;8.98;5.78;;;;;;;;;;5049867;28;20033;-68
2022/03/15 04:31:43;;;;;;;11.15;5.70;;;;;;;;;;5049768;28;20040;-69
2022/03/15 04:34:08;;;;;;;9.50;5.88;;;;;;;;;;5050179;28;20016;-68
2022/03/15 04:36:35;;;;;;;9.18;5.40;;;;;;;;;;5050471;28;20036;-68
2022/03/15 04:39:00;;;;;;;8.45;5.90;;;;;;;;;;5049965;28;20020;-69
2022/03/15 04:41:26;;;;;;;11.07;6.18;;;;;;;;;;5050079;28;20025;-70
2022/03/15 04:43:51;;;;;;;8.07;5.10;;;;;;;;;;5049055;28;20028;-70
2022/03/15 04:46:17;;;;;;;8.88;5.30;;;;;;;;;;5049784;28;20116;-68
2022/03/15 04:48:42;;;;;;;10.05;5.97;;;;;;;;;;5050004;28;20031;-70
2022/03/15 04:51:08;;;;;;;7.75;5.70;;;;;;;;;;5049945;28;20016;-69
2022/03/15 04:53:33;;;;;;;8.95;5.35;;;;;;;;;;5049358;28;20044;-70
2022/03/15 04:55:58;;;;;;;9.38;5.45;;;;;;;;;;5047705;28;20024;-70
2022/03/15 04:58:24;;;;;;;10.18;6.05;;;;;;;;;;5049331;28;20045;-70
2022/03/15 05:00:49;;;;;;;8.93;6.03;;;;;;;;;;5047459;28;20047;-70
2022/03/15 05:03:16;;;;;;;10.52;6.00;;;;;;;;;;5048934;28;20063;-70
2022/03/15 05:05:42;;;;;;;12.10;6.15;;;;;;;;;;5047662;28;20021;-71
2022/03/15 05:08:07;;;;;;;9.77;6.00;;;;;;;;;;5048596;28;20535;-71
2022/03/15 05:13:18;;;;;;;11.40;6.60;;;;;;;;;;5048296;28;20028;-70
2022/03/15 05:15:43;;;;;;;11.05;6.68;;;;;;;;;;5046807;28;20506;-70
2022/03/15 05:18:08;;;;;;;8.05;5.43;;;;;;;;;;5043509;28;20022;-70
2022/03/15 05:20:33;;;;;;;10.10;6.32;;;;;;;;;;5048203;28;20028;-70
2022/03/15 05:22:59;;;;;;;11.38;6.72;;;;;;;;;;5048771;28;20017;-70
2022/03/15 05:25:24;;;;;;;9.52;5.50;;;;;;;;;;5047179;28;20031;-70
2022/03/15 05:27:49;;;;;;;9.98;5.28;;;;;;;;;;5048087;28;20028;-70
2022/03/15 05:30:16;;;;;;;9.27;4.85;;;;;;;;;;5045779;28;20067;-70
2022/03/15 05:32:42;;;;;;;6.57;5.00;;;;;;;;;;5049560;28;20029;-70
2022/03/15 05:35:07;;;;;;;7.40;5.28;;;;;;;;;;5050327;28;20039;-70
2022/03/15 05:37:32;;;;;;;6.57;4.68;;;;;;;;;;5051029;28;20013;-69
2022/03/15 05:39:57;;;;;;;7.20;4.85;;;;;;;;;;5050551;28;20059;-69
2022/03/15 05:42:23;;;;;;;6.90;4.82;;;;;;;;;;5051065;28;20021;-69
2022/03/15 05:44:48;;;;;;;11.02;4.70;;;;;;;;;;5050411;28;20448;-71
2022/03/15 05:47:13;;;;;;;7.20;5.00;;;;;;;;;;5048815;28;20021;-71
2022/03/15 05:49:38;;;;;;;9.15;4.82;;;;;;;;;;5051069;28;20397;-70
2022/03/15 05:52:04;;;;;;;9.07;4.75;;;;;;;;;;5047915;28;20029;-71
2022/03/15 05:54:29;;;;;;;6.75;4.55;;;;;;;;;;5046378;28;20477;-68
2022/03/15 05:56:55;;;;;;;7.97;4.78;;;;;;;;;;5046610;28;20025;-71
2022/03/15 05:59:20;;;;;;;7.15;4.40;;;;;;;;;;5046742;28;20021;-70
2022/03/15 06:01:45;;;;;;;7.57;4.45;;;;;;;;;;5046671;28;20043;-70
2022/03/15 06:04:11;;;;;;;7.00;4.80;;;;;;;;;;5048421;28;20068;-70
2022/03/15 06:06:36;;;;;;;10.88;4.47;;;;;;;;;;5050192;28;20448;-70
2022/03/15 06:09:02;;;;;;;7.45;4.60;;;;;;;;;;5049735;28;20107;-70
2022/03/15 06:11:27;;;;;;;6.43;3.97;;;;;;;;;;5050804;28;20347;-70
2022/03/15 06:13:52;;;;;;;6.40;4.10;;;;;;;;;;5050174;28;20078;-70
2022/03/15 06:16:18;;;;;;;5.57;3.95;;;;;;;;;;5048757;28;20535;-70
2022/03/15 06:18:43;;;;;;;6.50;4.18;;;;;;;;;;5050046;28;20047;-70
2022/03/15 06:21:09;;;;;;;4.97;3.50;;;;;;;;;;5049571;28;20044;-70
2022/03/15 06:23:34;;;;;;;5.75;4.10;;;;;;;;;;5049948;28;20023;-70
2022/03/15 06:25:59;;;;;;;9.38;4.28;;;;;;;;;;5044351;28;20029;-71
2022/03/15 06:28:24;;;;;;;6.00;4.30;;;;;;;;;;5049404;28;20544;-71
2022/03/15 06:30:49;;;;;;;6.45;4.15;;;;;;;;;;5049118;28;20066;-71
2022/03/15 06:33:15;;;;;;;5.45;4.28;;;;;;;;;;5049802;28;20060;-70
2022/03/15 06:35:42;;;;;;;8.57;4.38;;;;;;;;;;5043661;28;20029;-70
2022/03/15 06:38:08;;;;;;;5.18;4.10;;;;;;;;;;5049986;28;20136;-71
2022/03/15 06:40:35;;;;;;;4.78;3.50;;;;;;;;;;5048929;28;20143;-68
2022/03/15 06:43:01;;;;;;;5.82;3.80;;;;;;;;;;5049410;28;20473;-70
2022/03/15 06:45:26;;;;;;;6.28;3.92;;;;;;;;;;5049222;28;20469;-71
2022/03/15 06:47:51;;;;;;;7.97;4.63;;;;;;;;;;5049204;28;20089;-71
2022/03/15 06:50:16;;;;;;;9.80;4.70;;;;;;;;;;5047443;28;20037;-71
2022/03/15 06:52:42;;;;;;;8.05;4.28;;;;;;;;;;5049350;28;20477;-71
2022/03/15 06:55:08;;;;;;;9.52;3.95;;;;;;;;;;5049506;28;20024;-70
2022/03/15 06:57:34;;;;;;;4.50;3.75;;;;;;;;;;5047133;28;20025;-69
2022/03/15 07:00:00;;;;;;;5.03;3.88;;;;;;;;;;5048169;28;20380;-70
2022/03/15 07:02:26;;;;;;;6.70;4.07;;;;;;;;;;5048086;28;20032;-70
2022/03/15 07:04:51;;;;;;;3.95;3.47;;;;;;;;;;5047790;28;20031;-70
2022/03/15 07:07:16;;;;;;;8.60;4.45;;;;;;;;;;5049986;28;20060;-70
2022/03/15 07:09:42;;;;;;;3.97;3.30;;;;;;;;;;5049170;28;20016;-70
2022/03/15 07:12:07;;;;;;;5.65;2.70;;;;;;;;;;5049744;28;20028;-70
2022/03/15 07:14:32;;;;;;;3.53;2.90;;;;;;;;;;5048361;28;20031;-70
2022/03/15 07:16:57;;;;;;;3.30;2.58;;;;;;;;;;5048349;28;20405;-70
2022/03/15 07:19:23;;;;;;;3.33;2.53;;;;;;;;;;5048778;28;20106;-70
2022/03/15 07:21:48;;;;;;;3.00;2.60;;;;;;;;;;5049722;28;20028;-70
2022/03/15 07:24:13;;;;;;;4.13;2.83;;;;;;;;;;5048583;28;20371;-70
2022/03/15 07:26:38;;;;;;;4.80;2.60;;;;;;;;;;5049220;28;20107;-70
2022/03/15 07:29:03;;;;;;;5.00;2.90;;;;;;;;;;5047282;28;20032;-70
2022/03/15 07:31:29;;;;;;;3.45;2.38;;;;;;;;;;5048484;28;20041;-69
2022/03/15 07:33:54;;;;;;;3.25;2.47;;;;;;;;;;5048800;28;20382;-69
2022/03/15 07:36:20;;;;;;;4.07;2.88;;;;;;;;;;5049459;28;20029;-70
2022/03/15 07:38:45;;;;;;;6.55;3.30;;;;;;;;;;5050045;28;20087;-69
2022/03/15 07:41:10;;;;;;;6.22;3.20;;;;;;;;;;5049752;28;20021;-70
2022/03/15 07:43:35;;;;;;;4.05;3.20;;;;;;;;;;5048759;28;20521;-70
2022/03/15 07:46:01;;;;;;;8.60;3.33;;;;;;;;;;5048784;28;20418;-70
2022/03/15 07:48:26;;;;;;;6.97;2.90;;;;;;;;;;5049134;28;20033;-69
2022/03/15 07:50:52;;;;;;;7.57;3.33;;;;;;;;;;5048219;28;20022;-70
2022/03/15 07:53:18;;;;;;;3.75;3.00;;;;;;;;;;5045364;28;20059;-69
2022/03/15 07:55:43;;;;;;;3.63;2.97;;;;;;;;;;5045847;28;20036;-69
2022/03/15 07:58:08;;;;;;;5.30;3.40;;;;;;;;;;5045027;28;20060;-69
2022/03/15 08:00:34;;;;;;;4.38;3.15;;;;;;;;;;5045892;28;20101;-70
2022/03/15 08:02:59;;;;;;;3.75;2.97;;;;;;;;;;5045819;28;20060;-70
2022/03/15 08:05:26;;;;;;;5.45;3.35;;;;;;;;;;5041667;28;20036;-70
2022/03/15 08:07:51;;;;;;;5.47;3.08;;;;;;;;;;5044771;28;20036;-70
2022/03/15 08:10:16;;;;;;;5.68;3.50;;;;;;;;;;5046168;28;20094;-70
2022/03/15 08:12:41;;;;;;;5.15;3.17;;;;;;;;;;5046047;28;20028;-70
2022/03/15 08:15:07;;;;;;;6.28;3.45;;;;;;;;;;5044461;28;20040;-69
2022/03/15 08:17:32;;;;;;;4.60;3.40;;;;;;;;;;5041892;28;20115;-69
2022/03/15 08:19:58;;;;;;;3.55;3.25;;;;;;;;;;5045400;28;20477;-70
2022/03/15 08:22:23;;;;;;;6.07;3.42;;;;;;;;;;5046973;28;20052;-70
2022/03/15 08:24:49;;;;;;;5.25;3.00;;;;;;;;;;5048822;28;20032;-69
2022/03/15 08:27:14;;;;;;;3.95;3.08;;;;;;;;;;5048151;28;20629;-69
2022/03/15 08:29:39;;;;;;;3.97;3.38;;;;;;;;;;5044953;28;20025;-69
2022/03/15 08:32:06;;;;;;;4.15;2.83;;;;;;;;;;5045340;28;20029;-73
2022/03/15 08:34:31;;;;;;;4.20;2.97;;;;;;;;;;5045624;28;20029;-72
2022/03/15 08:36:56;;;;;;;4.05;3.17;;;;;;;;;;5044824;28;20111;-72
2022/03/15 08:39:23;;;;;;;6.95;3.83;;;;;;;;;;5046050;28;20025;-72
2022/03/15 08:41:51;;;;;;;6.82;4.07;;;;;;;;;;5046689;28;20029;-74
2022/03/15 08:44:16;;;;;;;5.13;3.95;;;;;;;;;;5046247;28;20496;-72
2022/03/15 08:46:42;;;;;;;8.02;3.50;;;;;;;;;;5049127;28;20016;-73
2022/03/15 08:49:08;;;;;;;4.10;2.90;;;;;;;;;;5048532;28;20036;-72
2022/03/15 08:51:33;;;;;;;4.63;3.05;;;;;;;;;;5048139;28;20445;-72
2022/03/15 08:54:00;;;;;;;2.47;2.28;;;;;;;;;;5046874;28;20032;-72
2022/03/15 08:56:25;;;;;;;3.10;2.60;;;;;;;;;;5045887;28;20488;-73
2022/03/15 08:58:50;;;;;;;3.50;2.53;;;;;;;;;;5045874;28;20119;-72
2022/03/15 09:01:16;;;;;;;5.88;2.67;;;;;;;;;;5047722;28;20115;-72
2022/03/15 09:03:41;;;;;;;2.67;2.38;;;;;;;;;;5045495;28;20025;-72
2022/03/15 09:06:06;;;;;;;2.97;2.03;;;;;;;;;;5046859;28;20106;-72
2022/03/15 09:08:32;;;;;;;2.90;2.47;;;;;;;;;;5049498;28;20329;-72
2022/03/15 09:10:57;;;;;;;4.18;2.33;;;;;;;;;;5050480;28;20730;-73
2022/03/15 09:13:22;;;;;;;3.40;2.33;;;;;;;;;;5051886;28;20662;-72
2022/03/15 09:15:47;;;;;;;3.30;2.47;;;;;;;;;;5051102;28;20059;-72
2022/03/15 09:18:13;;;;;;;3.72;2.35;;;;;;;;;;5050978;28;20029;-73
2022/03/15 09:20:39;;;;;;;2.95;2.25;;;;;;;;;;5050611;28;20017;-72
2022/03/15 09:23:05;;;;;;;2.45;2.22;;;;;;;;;;5047781;28;20071;-73
2022/03/15 09:25:32;;;;;;;2.85;2.40;;;;;;;;;;5051156;28;20046;-72
2022/03/15 09:27:57;;;;;;;3.72;2.15;;;;;;;;;;5049577;28;20043;-72
2022/03/15 09:30:22;;;;;;;2.75;2.35;;;;;;;;;;5047985;28;20041;-71
2022/03/15 09:32:48;;;;;;;3.00;2.40;;;;;;;;;;5048176;28;20040;-71
2022/03/15 09:35:14;;;;;;;4.65;2.17;;;;;;;;;;5048963;28;20104;-71
2022/03/15 09:37:41;;;;;;;2.80;1.90;;;;;;;;;;5048767;28;20028;-71
2022/03/15 09:40:08;;;;;;;2.30;2.10;;;;;;;;;;5047767;28;20517;-71
2022/03/15 09:42:33;;;;;;;3.25;2.28;;;;;;;;;;5049775;28;20055;-69
2022/03/15 09:44:58;;;;;;;3.90;2.10;;;;;;;;;;5048333;28;20029;-69
2022/03/15 09:47:24;;;;;;;3.53;2.40;;;;;;;;;;5049250;28;20074;-71
2022/03/15 09:49:50;;;;;;;2.20;2.00;;;;;;;;;;5047929;28;20033;-71
2022/03/15 09:52:15;;;;;;;2.40;2.05;;;;;;;;;;5048864;28;20029;-71
2022/03/15 09:54:40;;;;;;;2.25;2.00;;;;;;;;;;5047464;28;21218;-71
2022/03/15 09:57:05;;;;;;;2.38;1.98;;;;;;;;;;5046730;28;20036;-71
2022/03/15 09:59:31;;;;;;;2.28;2.08;;;;;;;;;;5049053;28;20123;-71
2022/03/15 10:01:57;;;;;;;2.42;2.22;;;;;;;;;;5045089;28;20041;-71
2022/03/15 10:04:22;;;;;;;2.30;2.03;;;;;;;;;;5045934;28;20025;-71
2022/03/15 10:06:48;;;;;;;2.80;2.00;;;;;;;;;;5047510;28;20511;-71
2022/03/15 10:09:13;;;;;;;2.90;2.40;;;;;;;;;;5044680;28;20116;-71
2022/03/15 10:11:38;;;;;;;4.40;2.20;;;;;;;;;;5044677;28;20071;-71
2022/03/15 10:14:04;;;;;;;2.42;2.00;;;;;;;;;;5041982;28;20036;-73
2022/03/15 10:16:33;;;;;;;9.70;2.20;;;;;;;;;;5045289;28;20025;-72
2022/03/15 10:18:58;;;;;;;2.00;1.80;;;;;;;;;;5046828;28;20083;-71
2022/03/15 10:21:25;;;;;;;2.22;2.03;;;;;;;;;;5047150;28;20021;-72
2022/03/15 10:23:57;;;;;;;4.25;2.30;;;;;;;;;;5044163;28;20116;-71
2022/03/15 10:26:26;;;;;;;3.58;2.00;;;;;;;;;;5048081;28;20400;-71
2022/03/15 10:28:53;;;;;;;5.40;2.67;;;;;;;;;;5045638;28;20572;-71
2022/03/15 10:31:20;;;;;;;3.58;2.72;;;;;;;;;;5047375;28;20051;-71
2022/03/15 10:33:45;;;;;;;5.50;2.80;;;;;;;;;;5043434;28;20024;-71
2022/03/15 10:36:17;;;;;;;4.18;2.50;;;;;;;;;;5052644;28;20025;-70
2022/03/15 10:38:49;;;;;;;5.03;2.95;;;;;;;;;;5051052;28;20100;-70
2022/03/15 10:41:15;;;;;;;5.10;2.40;;;;;;;;;;5056014;28;20017;-70
2022/03/15 10:43:41;;;;;;;4.20;2.80;;;;;;;;;;5049896;28;20354;-70
2022/03/15 10:46:06;;;;;;;2.40;2.20;;;;;;;;;;5049633;28;20075;-70
2022/03/15 10:48:32;;;;;;;3.10;2.80;;;;;;;;;;5049827;28;20033;-69
2022/03/15 10:50:59;;;;;;;2.72;2.40;;;;;;;;;;5049460;28;20025;-70
2022/03/15 10:53:25;;;;;;;5.30;2.63;;;;;;;;;;5047764;28;20059;-70
2022/03/15 10:55:51;;;;;;;3.38;2.70;;;;;;;;;;5048150;28;20353;-70
2022/03/15 10:58:20;;;;;;;6.72;2.72;;;;;;;;;;5052699;28;20025;-70
2022/03/15 11:00:46;;;;;;;3.25;2.75;;;;;;;;;;5046305;28;20094;-70
2022/03/15 11:03:23;;;;;;;3.67;2.67;;;;;;;;;;5049234;28;20112;-70
2022/03/15 11:05:50;;;;;;;3.67;2.80;;;;;;;;;;5048436;28;20051;-70
2022/03/15 11:08:15;;;;;;;4.18;2.80;;;;;;;;;;5049289;28;20021;-70
2022/03/15 11:10:46;;;;;;;2.70;2.42;;;;;;;;;;5050732;28;20375;-69
2022/03/15 11:13:11;;;;;;;3.53;2.97;;;;;;;;;;5049449;28;20020;-70
2022/03/15 11:15:42;;;;;;;3.58;3.10;;;;;;;;;;5053074;28;20271;-70
2022/03/15 11:18:07;;;;;;;5.15;2.53;;;;;;;;;;5050076;28;20035;-70
2022/03/15 11:20:35;;;;;;;2.80;2.50;;;;;;;;;;5049288;28;20028;-70
2022/03/15 11:23:00;;;;;;;6.07;3.03;;;;;;;;;;5047286;28;20052;-70
2022/03/15 11:25:28;;;;;;;7.03;3.10;;;;;;;;;;5049118;28;20397;-70
2022/03/15 11:27:53;;;;;;;5.20;2.97;;;;;;;;;;5047641;28;20059;-69
2022/03/15 11:30:19;;;;;;;5.57;3.47;;;;;;;;;;5048993;28;20481;-69
2022/03/15 11:32:44;;;;;;;3.97;2.97;;;;;;;;;;5048139;28;20024;-69
2022/03/15 11:35:10;;;;;;;3.42;3.10;;;;;;;;;;5052250;28;20624;-70
2022/03/15 11:37:35;;;;;;;3.90;3.15;;;;;;;;;;5047961;28;20036;-70
2022/03/15 11:40:04;;;;;;;4.88;2.75;;;;;;;;;;5049352;28;20032;-69
2022/03/15 11:42:31;;;;;;;4.05;3.00;;;;;;;;;;5048755;28;20511;-70
2022/03/15 11:45:03;;;;;;;3.47;2.95;;;;;;;;;;5046806;28;20163;-70
2022/03/15 11:47:31;;;;;;;4.55;3.22;;;;;;;;;;5040991;28;20083;-70
2022/03/15 11:49:59;;;;;;;6.72;3.60;;;;;;;;;;5044630;28;20417;-69
2022/03/15 11:52:39;;;;;;;7.40;3.25;;;;;;;;;;5040144;28;20025;-69
2022/03/15 11:55:21;;;;;;;6.03;3.55;;;;;;;;;;5044221;28;20067;-69
2022/03/15 11:57:51;;;;;;;5.43;2.90;;;;;;;;;;5045270;28;20108;-70
2022/03/15 12:00:37;;;;;;;3.53;3.20;;;;;;;;;;5026283;28;20108;-69
2022/03/15 12:03:06;;;;;;;5.85;3.20;;;;;;;;;;5044422;28;20033;-69
2022/03/15 12:05:40;;;;;;;3.33;2.50;;;;;;;;;;5045189;28;20033;-69
2022/03/15 12:08:07;;;;;;;;;;;;;;;;;;5046755;28;20108;-69
2022/03/15 12:10:36;;;;;;;3.88;3.08;;;;;;;;;;5046096;28;19920;-69
2022/03/15 12:13:02;;;;;;;5.72;2.95;;;;;;;;;;5025219;28;20563;-69
2022/03/15 12:15:38;;;;;;;6.47;3.50;;;;;;;;;;5043128;28;20021;-69
2022/03/15 12:18:09;;;;;;;6.32;3.22;;;;;;;;;;5045311;28;20028;-71
2022/03/15 12:20:42;;;;;;;27.30;5.60;;;;;;;;;;5038766;28;20024;-71
2022/03/15 12:23:16;;;;;;;8.70;3.17;;;;;;;;;;5043231;28;20812;-70
2022/03/15 12:25:43;;;;;;;8.13;3.15;;;;;;;;;;5045134;28;20057;-70
2022/03/15 12:28:08;;;;;;;10.50;3.03;;;;;;;;;;5042123;28;20028;-69
2022/03/15 12:30:33;;;;;;;10.55;3.00;;;;;;;;;;5044380;28;20497;-69
2022/03/15 12:32:58;;;;;;;12.32;2.97;;;;;;;;;;5042778;28;20033;-68
2022/03/15 12:35:25;;;;;;;8.77;3.22;;;;;;;;;;5044713;28;20040;-69
2022/03/15 12:37:50;;;;;;;4.65;2.72;;;;;;;;;;5046409;28;20535;-69
2022/03/15 12:40:15;;;;;;;6.78;2.70;;;;;;;;;;5043604;28;20110;-69
2022/03/15 12:42:50;;;;;;;6.05;2.92;;;;;;;;;;5039123;28;20036;-70
2022/03/15 12:45:15;;;;;;;4.00;2.72;;;;;;;;;;5044683;28;20029;-69
2022/03/15 12:47:41;;;;;;;34.95;14.57;;;;;;;;;;5047771;28;20518;-70
2022/03/15 12:50:07;;;;;;;16.20;7.03;;;;;;;;;;5046705;28;20028;-68
2022/03/15 12:52:42;;;;;;;8.32;5.32;;;;;;;;;;5045197;28;20035;-70
2022/03/15 12:55:15;;;;;;;9.50;3.70;;;;;;;;;;5047668;28;20048;-69
2022/03/15 18:28:58;;;;;;;53.60;9.65;;;;;;;;;;5070099;27;20465;-71
2022/03/15 18:31:23;;;;;;;72.22;13.35;;;;;;;;;;5031831;28;20038;-73
2022/03/15 18:33:53;;;;;;;52.72;10.88;;;;;;;;;;5013089;28;20496;-71
2022/03/15 18:36:19;;;;;;;63.42;11.05;;;;;;;;;;5015749;28;20028;-75
2022/03/15 18:38:44;;;;;;;51.88;9.07;;;;;;;;;;5016076;28;20018;-71
2022/03/15 18:41:11;;;;;;;50.10;9.60;;;;;;;;;;5015238;28;20022;-72
2022/03/15 18:43:37;;;;;;;44.55;10.30;;;;;;;;;;5014420;28;20022;-72
2022/03/15 18:46:07;;;;;;;37.42;7.70;;;;;;;;;;5013037;28;20022;-72
2022/03/15 18:48:33;;;;;;;44.83;6.97;;;;;;;;;;5014871;28;20022;-73
2022/03/15 18:50:58;;;;;;;49.92;6.97;;;;;;;;;;5014955;28;20021;-73
2022/03/15 18:53:26;;;;;;;62.58;6.47;;;;;;;;;;5013851;28;20018;-73
2022/03/15 18:55:51;;;;;;;44.72;7.22;;;;;;;;;;5013352;28;20393;-72
2022/03/15 18:58:16;;;;;;;32.92;6.30;;;;;;;;;;5014631;28;20033;-72
2022/03/15 19:00:42;;;;;;;34.58;6.05;;;;;;;;;;5013479;28;20036;-72
2022/03/15 19:03:10;;;;;;;33.70;5.85;;;;;;;;;;5015330;28;20022;-72
2022/03/15 19:05:36;;;;;;;30.00;6.22;;;;;;;;;;5015253;28;20046;-72
2022/03/15 19:08:02;;;;;;;32.35;5.53;;;;;;;;;;5015346;28;20457;-72
2022/03/15 19:10:29;;;;;;;30.40;4.90;;;;;;;;;;5015356;28;20025;-72
2022/03/15 19:12:57;;;;;;;43.53;4.88;;;;;;;;;;5015190;28;20448;-72
2022/03/15 19:15:23;;;;;;;33.28;4.97;;;;;;;;;;5015215;28;20014;-72
2022/03/15 19:17:49;;;;;;;30.10;5.82;;;;;;;;;;5015120;28;20041;-72
2022/03/15 19:20:15;;;;;;;26.35;4.70;;;;;;;;;;5013805;28;20018;-72
2022/03/15 19:22:44;;;;;;;29.88;4.85;;;;;;;;;;5000192;28;20044;-72
2022/03/15 19:25:12;;;;;;;40.85;5.00;;;;;;;;;;5014694;28;20383;-72
2022/03/15 19:27:38;;;;;;;27.67;5.07;;;;;;;;;;5014420;28;20029;-73
2022/03/15 19:30:08;;;;;;;26.55;3.78;;;;;;;;;;5011838;28;20013;-73
2022/03/15 19:32:35;;;;;;;31.92;5.55;;;;;;;;;;5010985;28;20044;-72
2022/03/15 19:35:00;;;;;;;38.75;4.80;;;;;;;;;;5014639;28;20018;-72
2022/03/15 19:37:25;;;;;;;25.33;4.68;;;;;;;;;;5014227;28;20023;-73
2022/03/15 19:39:51;;;;;;;26.10;4.35;;;;;;;;;;5005092;28;20093;-73
2022/03/15 19:42:19;;;;;;;51.38;5.07;;;;;;;;;;5002317;28;20033;-73
2022/03/15 19:44:44;;;;;;;21.80;4.07;;;;;;;;;;5000392;28;20622;-72
2022/03/15 19:47:10;;;;;;;21.20;4.85;;;;;;;;;;5001049;28;20038;-73
2022/03/15 19:49:35;;;;;;;27.58;4.22;;;;;;;;;;5001197;28;20029;-73
2022/03/15 19:52:01;;;;;;;19.25;3.38;;;;;;;;;;5002474;28;20104;-73
2022/03/15 19:54:26;;;;;;;17.88;3.72;;;;;;;;;;5001803;28;20033;-72
2022/03/15 19:56:51;;;;;;;24.27;3.60;;;;;;;;;;5001321;28;21886;-72
2022/03/15 19:59:17;;;;;;;31.25;3.58;;;;;;;;;;5001676;28;20053;-72
2022/03/15 20:01:46;;;;;;;28.23;3.97;;;;;;;;;;5001364;28;20042;-72
2022/03/15 20:04:19;;;;;;;19.02;3.83;;;;;;;;;;5000628;28;20021;-72
2022/03/15 20:06:46;;;;;;;17.83;3.33;;;;;;;;;;5001341;28;20476;-72
2022/03/15 20:09:11;;;;;;;18.85;3.13;;;;;;;;;;5000236;28;20014;-72